Time;durP1;ratioP1;P1;durP2;ratioP2;P2;SDS_P1;SDS_P2;PMS_P1;PMS_P2;Temp;Humidity;BMP_temperature;BMP_pressure;BME280_temperature;BME280_humidity;BME280_pressure;Samples;Min_cycle;Max_cycle;Signal;HPM_P1;HPM_P2
2022/03/31 00:00:51;;;;;;;12.38;7.47;;;;;;;0.64;72.90;99850.91;7395013;19;20015;-66
2022/03/31 00:03:21;;;;;;;9.77;6.90;;;;;;;0.60;72.64;99844.84;7392980;19;20015;-66
2022/03/31 00:05:50;;;;;;;14.90;7.63;;;;;;;0.59;72.62;99852.59;7394337;19;20018;-66
2022/03/31 00:08:20;;;;;;;9.57;7.40;;;;;;;0.55;72.91;99848.28;7394837;19;20074;-66
2022/03/31 00:10:50;;;;;;;12.82;6.93;;;;;;;0.52;72.56;99845.69;7394732;19;20015;-66
2022/03/31 00:13:25;;;;;;;11.98;7.43;;;;;;;0.48;72.71;99848.25;7394384;19;20029;-66
2022/03/31 00:15:56;;;;;;;12.00;7.13;;;;;;;0.46;72.52;99844.78;7395102;19;20015;-66
2022/03/31 00:18:24;;;;;;;16.05;7.65;;;;;;;0.45;72.57;99847.38;7393002;19;20033;-66
2022/03/31 00:20:52;;;;;;;14.15;7.95;;;;;;;0.43;72.61;99847.38;7392606;19;20026;-66
2022/03/31 00:23:21;;;;;;;10.85;7.28;;;;;;;0.43;72.34;99841.31;7392028;19;20402;-66
2022/03/31 00:25:49;;;;;;;13.82;6.97;;;;;;;0.43;72.49;99849.06;7393911;19;20022;-66
2022/03/31 00:28:17;;;;;;;18.60;7.28;;;;;;;0.43;72.43;99843.91;7394481;19;20103;-66
2022/03/31 00:30:48;;;;;;;10.70;6.60;;;;;;;0.44;72.31;99836.19;7395090;19;20018;-66
2022/03/31 00:33:16;;;;;;;9.25;7.15;;;;;;;0.44;72.36;99841.34;7392599;19;20026;-66
2022/03/31 00:35:44;;;;;;;13.35;8.10;;;;;;;0.44;72.35;99837.91;7394100;19;20023;-66
2022/03/31 00:38:12;;;;;;;11.48;7.65;;;;;;;0.40;72.31;99833.59;7392193;19;20023;-66
2022/03/31 00:40:41;;;;;;;12.48;7.38;;;;;;;0.42;72.33;99831.88;7394053;19;20027;-66
2022/03/31 00:43:09;;;;;;;15.10;7.65;;;;;;;0.41;72.18;99832.72;7391826;19;20022;-66
2022/03/31 00:45:46;;;;;;;11.82;6.70;;;;;;;0.39;72.03;99832.72;7391829;19;20102;-66
2022/03/31 00:48:18;;;;;;;11.15;8.02;;;;;;;0.39;72.05;99829.28;7392196;19;20019;-66
2022/03/31 00:50:47;;;;;;;10.82;8.05;;;;;;;0.38;72.16;99832.69;7392119;19;20014;-66
2022/03/31 00:53:16;;;;;;;17.50;8.57;;;;;;;0.37;72.07;99834.44;7391444;19;20022;-66
2022/03/31 00:55:47;;;;;;;13.07;8.23;;;;;;;0.36;72.10;99830.13;7393558;19;20019;-66
2022/03/31 00:58:16;;;;;;;11.98;7.93;;;;;;;0.34;72.04;99834.41;7391017;19;20427;-66
2022/03/31 01:00:44;;;;;;;14.50;7.97;;;;;;;0.33;71.95;99830.13;7391603;19;20035;-66
2022/03/31 01:03:13;;;;;;;13.52;8.43;;;;;;;0.32;71.97;99830.97;7397637;19;20490;-66
2022/03/31 01:05:44;;;;;;;14.35;8.95;;;;;;;0.30;72.04;99830.09;7398486;19;20422;-66
2022/03/31 01:08:12;;;;;;;13.23;8.75;;;;;;;0.27;72.11;99828.34;7401127;19;20026;-66
2022/03/31 01:10:40;;;;;;;14.38;9.05;;;;;;;0.24;71.79;99815.44;7400686;19;20027;-66
2022/03/31 01:13:09;;;;;;;12.77;8.68;;;;;;;0.22;71.94;99821.47;7401464;19;20108;-66
2022/03/31 01:15:38;;;;;;;15.02;9.25;;;;;;;0.19;72.05;99832.63;7397986;19;20022;-66
2022/03/31 01:18:06;;;;;;;16.05;8.98;;;;;;;0.15;71.82;99826.56;7397040;19;20485;-66
2022/03/31 01:20:35;;;;;;;12.48;8.48;;;;;;;0.12;72.10;99826.53;7397863;19;20022;-65
2022/03/31 01:23:14;;;;;;;12.35;8.85;;;;;;;0.10;72.07;99827.38;7399745;19;20022;-67
2022/03/31 01:25:42;;;;;;;16.00;8.63;;;;;;;0.07;71.99;99828.22;7398106;19;20457;-66
2022/03/31 01:28:10;;;;;;;15.23;9.45;;;;;;;0.05;71.99;99829.06;7397564;19;20022;-66
2022/03/31 01:30:38;;;;;;;13.48;9.75;;;;;;;0.02;72.17;99832.50;7397583;19;20027;-66
2022/03/31 01:33:07;;;;;;;13.13;8.70;;;;;;;-0.02;72.16;99836.78;7397077;19;20430;-66
2022/03/31 01:35:35;;;;;;;14.68;9.00;;;;;;;-0.05;72.00;99826.44;7399885;19;20027;-66
2022/03/31 01:38:03;;;;;;;13.82;8.55;;;;;;;-0.08;72.14;99834.16;7399348;19;20035;-66
2022/03/31 01:40:34;;;;;;;16.52;9.85;;;;;;;-0.09;72.38;99835.03;7399699;19;20022;-66
2022/03/31 01:43:02;;;;;;;11.10;8.73;;;;;;;-0.12;72.43;99834.13;7396657;19;20477;-66
2022/03/31 01:45:30;;;;;;;12.63;8.73;;;;;;;-0.14;72.34;99834.09;7397244;19;20014;-67
2022/03/31 01:47:59;;;;;;;11.85;8.90;;;;;;;-0.14;72.17;99835.81;7397241;19;20030;-66
2022/03/31 01:50:27;;;;;;;15.77;9.98;;;;;;;-0.16;72.34;99835.81;7398974;19;20435;-66
2022/03/31 01:52:55;;;;;;;16.85;10.27;;;;;;;-0.19;72.29;99841.81;7398852;19;20031;-67
2022/03/31 01:55:23;;;;;;;17.95;10.32;;;;;;;-0.20;72.24;99844.41;7399950;19;20026;-66
2022/03/31 01:57:55;;;;;;;16.40;10.02;;;;;;;-0.23;72.21;99845.22;7399130;19;20025;-66
2022/03/31 02:00:23;;;;;;;16.42;9.98;;;;;;;-0.25;72.16;99841.78;7399510;19;20023;-66
2022/03/31 02:02:51;;;;;;;15.57;10.13;;;;;;;-0.28;72.39;99831.41;7398144;19;20481;-66
2022/03/31 02:05:19;;;;;;;16.80;10.00;;;;;;;-0.32;72.33;99834.81;7398863;19;20422;-66
2022/03/31 02:07:47;;;;;;;14.80;9.35;;;;;;;-0.33;72.31;99838.25;7396492;19;20018;-66
2022/03/31 02:10:16;;;;;;;18.45;10.65;;;;;;;-0.37;72.07;99834.81;7396468;19;20022;-66
2022/03/31 02:12:44;;;;;;;15.65;9.90;;;;;;;-0.38;72.17;99837.34;7394744;19;20018;-66
2022/03/31 02:15:15;;;;;;;15.30;9.90;;;;;;;-0.40;72.38;99836.50;7400275;19;20041;-67
2022/03/31 02:17:43;;;;;;;14.02;9.85;;;;;;;-0.43;72.26;99839.91;7397944;19;20024;-67
2022/03/31 02:20:12;;;;;;;13.48;9.10;;;;;;;-0.43;72.52;99837.34;7396654;19;20025;-67
2022/03/31 02:22:40;;;;;;;13.65;9.55;;;;;;;-0.44;72.51;99845.03;7396060;19;20018;-66
2022/03/31 02:25:11;;;;;;;15.57;9.68;;;;;;;-0.47;72.55;99842.44;7396110;19;20026;-66
2022/03/31 02:27:39;;;;;;;13.02;9.52;;;;;;;-0.51;72.31;99839.81;7396789;19;20014;-66
2022/03/31 02:30:10;;;;;;;14.20;9.88;;;;;;;-0.53;72.30;99844.13;7397624;19;20477;-66
2022/03/31 02:32:41;;;;;;;15.70;10.65;;;;;;;-0.54;72.52;99844.09;7395964;19;20032;-66
2022/03/31 02:35:11;;;;;;;17.73;9.32;;;;;;;-0.58;72.49;99835.47;7398089;19;20039;-66
2022/03/31 02:37:39;;;;;;;13.73;9.60;;;;;;;-0.58;72.57;99832.91;7397468;19;20014;-66
2022/03/31 02:40:11;;;;;;;12.95;9.57;;;;;;;-0.59;72.34;99835.47;7395773;19;20022;-66
2022/03/31 02:42:39;;;;;;;14.43;9.60;;;;;;;-0.62;72.36;99836.31;7395886;19;20015;-68
2022/03/31 02:45:09;;;;;;;16.52;9.57;;;;;;;-0.64;72.30;99830.28;7395625;19;20022;-67
2022/03/31 02:47:37;;;;;;;16.90;10.57;;;;;;;-0.64;72.47;99848.31;7395443;19;20026;-66
2022/03/31 02:50:09;;;;;;;12.57;9.52;;;;;;;-0.66;72.37;99834.53;7395581;19;20018;-67
2022/03/31 02:55:28;;;;;;;16.05;9.60;;;;;;;-0.70;72.63;99843.09;7397663;19;20477;-67
2022/03/31 02:58:05;;;;;;;12.98;9.73;;;;;;;-0.71;72.58;99839.66;7395332;19;20014;-67
2022/03/31 03:00:36;;;;;;;12.27;9.73;;;;;;;-0.74;72.56;99833.63;7398564;19;20022;-67
2022/03/31 03:03:06;;;;;;;17.58;10.27;;;;;;;-0.77;72.66;99828.41;7395260;19;20018;-67
2022/03/31 03:05:37;;;;;;;14.32;9.73;;;;;;;-0.79;72.48;99835.28;7396896;19;20018;-67
2022/03/31 03:08:06;;;;;;;16.40;9.98;;;;;;;-0.82;72.46;99831.81;7395354;19;20026;-67
2022/03/31 03:10:34;;;;;;;15.43;8.82;;;;;;;-0.85;72.53;99828.34;7396573;19;20018;-67
2022/03/31 03:13:02;;;;;;;16.35;9.63;;;;;;;-0.88;72.70;99828.31;7395704;19;20391;-67
2022/03/31 03:15:30;;;;;;;11.70;9.13;;;;;;;-0.90;72.65;99828.28;7396596;19;20041;-67
2022/03/31 03:17:58;;;;;;;17.70;10.07;;;;;;;-0.90;72.87;99824.84;7394258;19;20028;-67
2022/03/31 03:20:27;;;;;;;14.02;9.88;;;;;;;-0.92;72.96;99822.28;7396410;19;20031;-67
2022/03/31 03:22:58;;;;;;;14.38;9.75;;;;;;;-0.93;72.80;99819.69;7394432;19;20035;-67
2022/03/31 03:25:26;;;;;;;14.27;9.70;;;;;;;-0.94;72.76;99817.97;7394805;19;20022;-67
2022/03/31 03:27:55;;;;;;;17.40;10.77;;;;;;;-0.95;72.58;99816.22;7394341;19;20022;-67
2022/03/31 03:30:23;;;;;;;13.38;9.38;;;;;;;-0.99;72.55;99815.31;7394316;19;20019;-67
2022/03/31 03:32:51;;;;;;;12.35;8.85;;;;;;;-0.99;72.72;99815.31;7395799;19;20019;-65
2022/03/31 03:35:20;;;;;;;13.45;9.65;;;;;;;-1.06;72.89;99803.22;7395292;19;20489;-66
2022/03/31 03:37:48;;;;;;;14.55;9.77;;;;;;;-1.05;72.68;99815.25;7393884;19;20035;-66
2022/03/31 03:40:25;;;;;;;17.27;9.55;;;;;;;-1.06;72.70;99816.09;7393811;19;20022;-66
2022/03/31 03:42:55;;;;;;;13.00;9.50;;;;;;;-1.09;72.79;99805.78;7393648;19;20045;-67
2022/03/31 03:45:23;;;;;;;12.25;8.75;;;;;;;-1.11;72.77;99810.94;7393713;19;20025;-66
2022/03/31 03:47:51;;;;;;;13.07;8.98;;;;;;;-1.12;72.67;99816.06;7394141;19;20018;-65
2022/03/31 03:50:20;;;;;;;14.63;9.60;;;;;;;-1.13;72.71;99817.75;7395242;19;20041;-65
2022/03/31 03:52:49;;;;;;;13.70;8.93;;;;;;;-1.16;72.78;99816.00;7394826;19;20043;-67
2022/03/31 03:55:19;;;;;;;19.50;9.18;;;;;;;-1.16;72.65;99822.88;7394855;19;20018;-65
2022/03/31 03:57:48;;;;;;;13.40;9.25;;;;;;;-1.19;72.83;99817.69;7394798;19;20031;-66
2022/03/31 04:00:18;;;;;;;17.02;9.30;;;;;;;-1.20;72.67;99818.53;7394507;19;20018;-65
2022/03/31 04:02:46;;;;;;;15.10;8.55;;;;;;;-1.20;72.63;99818.53;7395271;19;20019;-67
2022/03/31 04:05:14;;;;;;;10.18;7.40;;;;;;;-1.21;72.68;99819.41;7394131;19;20457;-66
2022/03/31 04:07:42;;;;;;;13.30;7.75;;;;;;;-1.22;72.42;99812.50;7394129;19;20035;-66
2022/03/31 04:10:11;;;;;;;12.18;7.93;;;;;;;-1.23;72.48;99805.63;7394441;19;20014;-66
2022/03/31 04:12:42;;;;;;;13.60;8.43;;;;;;;-1.24;72.58;99803.91;7394078;19;20022;-66
2022/03/31 04:15:13;;;;;;;12.07;8.63;;;;;;;-1.25;72.43;99810.78;7394367;19;20387;-66
2022/03/31 04:17:42;;;;;;;12.10;8.43;;;;;;;-1.25;72.51;99808.19;7392191;19;20010;-66
2022/03/31 04:20:13;;;;;;;13.65;8.30;;;;;;;-1.26;72.36;99806.47;7394467;19;20397;-67
2022/03/31 04:22:41;;;;;;;14.77;7.90;;;;;;;-1.25;72.39;99804.75;7392846;19;20018;-66
2022/03/31 04:25:11;;;;;;;11.65;8.68;;;;;;;-1.26;72.51;99793.59;7392416;19;20040;-66
2022/03/31 04:27:42;;;;;;;13.88;8.52;;;;;;;-1.27;72.50;99799.59;7393241;19;20396;-66
2022/03/31 04:30:13;;;;;;;10.63;8.45;;;;;;;-1.28;72.40;99797.84;7393528;19;20538;-66
2022/03/31 04:32:42;;;;;;;11.65;7.88;;;;;;;-1.31;72.13;99797.84;7393384;19;20026;-66
2022/03/31 04:35:12;;;;;;;15.50;8.18;;;;;;;-1.35;72.37;99796.94;7392237;19;20027;-67
2022/03/31 04:37:40;;;;;;;9.02;7.50;;;;;;;-1.38;72.28;99798.59;7397169;19;20007;-67
2022/03/31 04:40:10;;;;;;;11.32;7.90;;;;;;;-1.39;72.39;99794.28;7397556;19;20022;-67
2022/03/31 04:42:41;;;;;;;12.40;7.30;;;;;;;-1.42;72.39;99802.84;7400722;19;20123;-67
2022/03/31 04:45:11;;;;;;;12.15;8.13;;;;;;;-1.43;72.26;99803.69;7398287;19;20022;-67
2022/03/31 04:47:39;;;;;;;13.00;7.40;;;;;;;-1.48;72.02;99798.50;7399010;19;20035;-67
2022/03/31 04:50:08;;;;;;;13.63;7.70;;;;;;;-1.49;71.93;99804.47;7399683;19;20537;-66
2022/03/31 04:52:36;;;;;;;11.73;7.78;;;;;;;-1.44;72.01;99813.97;7399801;19;20035;-67
2022/03/31 04:55:05;;;;;;;13.75;8.13;;;;;;;-1.46;72.09;99813.09;7400298;19;20104;-68
2022/03/31 04:57:33;;;;;;;12.93;7.38;;;;;;;-1.46;71.98;99807.94;7396955;19;20019;-67
2022/03/31 05:00:05;;;;;;;10.05;7.20;;;;;;;-1.46;71.90;99813.09;7398600;19;20055;-65
2022/03/31 05:02:33;;;;;;;9.73;6.93;;;;;;;-1.46;71.71;99815.66;7396819;19;20119;-66
2022/03/31 05:05:01;;;;;;;10.93;7.25;;;;;;;-1.47;71.81;99814.78;7396680;19;20022;-67
2022/03/31 05:07:30;;;;;;;11.75;7.20;;;;;;;-1.51;71.80;99816.44;7397661;19;20027;-66
2022/03/31 05:09:58;;;;;;;12.23;7.53;;;;;;;-1.51;71.74;99815.59;7397336;19;20022;-66
2022/03/31 05:12:26;;;;;;;10.75;6.25;;;;;;;-1.52;71.98;99813.88;7397464;19;20047;-66
2022/03/31 05:14:54;;;;;;;8.82;6.72;;;;;;;-1.54;71.73;99824.16;7397363;19;20041;-66
2022/03/31 05:17:25;;;;;;;8.18;6.45;;;;;;;-1.53;71.71;99825.00;7396132;19;20019;-65
2022/03/31 05:19:53;;;;;;;13.07;6.85;;;;;;;-1.53;71.71;99825.88;7396034;19;20480;-70
2022/03/31 05:22:21;;;;;;;10.77;7.22;;;;;;;-1.51;71.62;99828.47;7399563;19;20015;-64
2022/03/31 05:24:49;;;;;;;9.95;6.38;;;;;;;-1.52;71.53;99825.00;7396615;19;20023;-65
2022/03/31 05:27:17;;;;;;;12.50;6.85;;;;;;;-1.50;71.38;99825.06;7396991;19;20035;-65
2022/03/31 05:29:46;;;;;;;11.15;6.57;;;;;;;-1.51;71.43;99821.59;7396486;19;20026;-65
2022/03/31 05:32:14;;;;;;;10.60;6.50;;;;;;;-1.49;71.29;99824.22;7399117;19;20055;-70
2022/03/31 05:34:44;;;;;;;13.40;8.70;;;;;;;-1.48;71.41;99816.50;7396946;19;20019;-70
2022/03/31 05:37:12;;;;;;;12.45;6.43;;;;;;;-1.45;71.15;99822.53;7396910;19;20039;-65
2022/03/31 05:39:41;;;;;;;11.40;6.13;;;;;;;-1.43;71.04;99828.56;7398514;19;20028;-65
2022/03/31 05:42:10;;;;;;;9.82;5.72;;;;;;;-1.42;70.78;99826.00;7398198;19;20035;-66
2022/03/31 05:44:38;;;;;;;9.80;6.00;;;;;;;-1.39;70.71;99820.91;7397000;19;20371;-65
2022/03/31 05:47:08;;;;;;;7.97;5.95;;;;;;;-1.36;70.80;99817.50;7395757;19;20019;-66
2022/03/31 05:49:36;;;;;;;10.85;6.00;;;;;;;-1.35;70.61;99827.81;7398482;19;20015;-65
2022/03/31 05:52:07;;;;;;;10.30;6.35;;;;;;;-1.33;70.30;99826.13;7398151;19;20494;-65
2022/03/31 05:54:36;;;;;;;11.88;5.90;;;;;;;-1.30;70.08;99833.03;7396892;19;20022;-67
2022/03/31 05:57:04;;;;;;;10.55;5.72;;;;;;;-1.27;70.38;99835.63;7398484;19;20018;-66
2022/03/31 05:59:32;;;;;;;8.90;5.90;;;;;;;-1.23;70.08;99842.53;7396024;19;20018;-63
2022/03/31 06:02:01;;;;;;;8.32;5.60;;;;;;;-1.21;69.83;99840.00;7398057;19;20036;-64
2022/03/31 06:04:30;;;;;;;9.30;6.10;;;;;;;-1.19;69.65;99843.44;7395640;19;20041;-64
2022/03/31 06:06:58;;;;;;;9.38;6.00;;;;;;;-1.18;69.62;99843.44;7397507;19;20488;-64
2022/03/31 06:09:29;;;;;;;9.88;5.32;;;;;;;-1.16;69.58;99839.19;7395866;19;20031;-65
2022/03/31 06:11:57;;;;;;;9.40;5.35;;;;;;;-1.15;69.46;99840.91;7395815;19;20018;-65
2022/03/31 06:14:25;;;;;;;8.82;5.43;;;;;;;-1.12;69.64;99845.22;7396090;19;20385;-65
2022/03/31 06:16:53;;;;;;;11.68;6.53;;;;;;;-1.09;69.21;99840.09;7397380;19;20035;-65
2022/03/31 06:19:22;;;;;;;10.77;5.63;;;;;;;-1.02;69.01;99851.34;7395966;19;20011;-65
2022/03/31 06:21:50;;;;;;;7.95;5.45;;;;;;;-0.98;68.75;99846.22;7398053;19;20022;-65
2022/03/31 06:24:18;;;;;;;10.02;5.63;;;;;;;-0.94;68.78;99851.44;7395469;19;20018;-65
2022/03/31 06:26:49;;;;;;;9.15;5.68;;;;;;;-0.91;68.77;99844.59;7396612;19;20022;-65
2022/03/31 06:29:17;;;;;;;13.25;6.03;;;;;;;-0.85;68.85;99848.94;7394104;19;20035;-65
2022/03/31 06:31:45;;;;;;;8.73;5.13;;;;;;;-0.76;68.50;99849.03;7395391;19;20031;-65
2022/03/31 06:34:13;;;;;;;9.55;5.35;;;;;;;-0.64;68.44;99857.72;7395190;19;20019;-64
2022/03/31 06:36:41;;;;;;;7.80;5.20;;;;;;;-0.57;68.09;99857.84;7395400;19;20035;-66
2022/03/31 06:39:10;;;;;;;8.45;5.35;;;;;;;-0.47;67.53;99857.91;7396911;19;20419;-65
2022/03/31 06:41:38;;;;;;;9.32;5.07;;;;;;;-0.40;67.49;99850.22;7397280;19;20015;-65
2022/03/31 06:44:13;;;;;;;10.30;5.65;;;;;;;-0.32;67.23;99854.59;7395036;19;20039;-64
2022/03/31 06:46:41;;;;;;;11.25;5.78;;;;;;;-0.25;66.99;99857.25;7396776;19;20011;-66
2022/03/31 06:49:10;;;;;;;8.80;4.72;;;;;;;-0.17;66.80;99860.72;7395050;19;20039;-65
2022/03/31 06:51:38;;;;;;;8.70;5.53;;;;;;;-0.10;66.61;99856.50;7395080;19;20015;-64
2022/03/31 06:54:06;;;;;;;6.75;4.88;;;;;;;-0.06;65.96;99852.22;7394815;19;20027;-64
2022/03/31 06:56:35;;;;;;;7.50;4.85;;;;;;;-0.01;65.75;99855.69;7397269;19;20031;-64
2022/03/31 06:59:03;;;;;;;6.82;5.22;;;;;;;0.03;65.26;99852.28;7395680;19;20373;-64
2022/03/31 07:01:34;;;;;;;7.72;5.25;;;;;;;0.05;65.30;99847.13;7396427;19;20396;-65
2022/03/31 07:04:04;;;;;;;9.48;5.60;;;;;;;0.10;65.41;99850.59;7395488;19;20032;-66
2022/03/31 07:06:32;;;;;;;10.73;5.45;;;;;;;0.17;65.34;99848.94;7394703;19;20014;-64
2022/03/31 07:09:00;;;;;;;7.63;4.90;;;;;;;0.22;64.91;99844.69;7394275;19;20022;-65
2022/03/31 07:11:28;;;;;;;7.32;5.50;;;;;;;0.28;64.68;99849.88;7394287;19;20022;-69
2022/03/31 07:13:57;;;;;;;8.95;5.88;;;;;;;0.36;64.89;99832.69;7394067;19;20498;-65
2022/03/31 07:16:25;;;;;;;5.55;4.82;;;;;;;0.40;64.38;99837.00;7393054;19;20492;-66
2022/03/31 07:18:55;;;;;;;9.32;5.22;;;;;;;0.45;64.31;99840.47;7394184;19;20014;-66
2022/03/31 07:21:24;;;;;;;10.05;4.97;;;;;;;0.49;63.97;99836.19;7395655;19;20539;-66
2022/03/31 07:23:53;;;;;;;6.72;4.80;;;;;;;0.55;63.78;99832.78;7394062;19;20022;-66
2022/03/31 07:26:22;;;;;;;8.35;5.65;;;;;;;0.60;64.07;99831.09;7395563;19;20033;-64
2022/03/31 07:28:50;;;;;;;7.85;5.30;;;;;;;0.68;63.71;99833.72;7393903;19;20023;-64
2022/03/31 07:31:18;;;;;;;10.10;5.70;;;;;;;0.75;63.32;99832.88;7396227;19;20111;-65
2022/03/31 07:33:47;;;;;;;8.30;5.68;;;;;;;0.83;63.39;99830.31;7393853;19;20045;-67
2022/03/31 07:36:18;;;;;;;7.43;5.15;;;;;;;0.90;63.07;99832.94;7393384;19;20027;-65
2022/03/31 07:38:48;;;;;;;8.68;5.65;;;;;;;0.96;62.87;99825.19;7395370;19;20014;-68
2022/03/31 07:41:17;;;;;;;7.68;5.43;;;;;;;1.07;62.81;99825.22;7393335;19;20021;-65
2022/03/31 07:43:45;;;;;;;14.38;7.80;;;;;;;1.13;61.56;99825.22;7394258;19;20157;-65
2022/03/31 07:46:14;;;;;;;11.00;4.82;;;;;;;1.20;62.26;99818.38;7394583;19;20480;-66
2022/03/31 07:48:42;;;;;;;7.63;4.93;;;;;;;1.25;62.31;99819.25;7394688;19;20026;-65
2022/03/31 07:51:10;;;;;;;11.60;6.25;;;;;;;1.31;62.13;99823.53;7395255;19;20019;-65
2022/03/31 07:53:41;;;;;;;7.75;5.47;;;;;;;1.36;61.58;99814.06;7394000;19;20385;-64
2022/03/31 07:56:09;;;;;;;8.80;5.60;;;;;;;1.42;62.12;99831.31;7393822;19;20022;-65
2022/03/31 07:58:37;;;;;;;11.68;5.40;;;;;;;1.48;62.11;99830.44;7393421;19;20018;-67
2022/03/31 08:01:05;;;;;;;12.88;5.95;;;;;;;1.53;61.57;99828.72;7393301;19;20036;-65
2022/03/31 08:03:34;;;;;;;12.10;6.55;;;;;;;1.57;61.33;99815.81;7393778;19;20123;-65
2022/03/31 08:06:02;;;;;;;8.77;5.53;;;;;;;1.61;61.40;99821.84;7394507;19;20018;-65
2022/03/31 08:08:30;;;;;;;9.23;5.22;;;;;;;1.62;61.31;99819.25;7394930;19;20348;-65
2022/03/31 08:11:01;;;;;;;7.78;5.25;;;;;;;1.66;61.34;99820.13;7393657;19;20010;-66
2022/03/31 08:13:31;;;;;;;9.48;5.57;;;;;;;1.71;61.29;99820.97;7399480;19;20022;-65
2022/03/31 08:16:00;;;;;;;9.02;5.45;;;;;;;1.78;61.15;99820.13;7401744;19;20339;-65
2022/03/31 08:18:31;;;;;;;9.75;5.05;;;;;;;1.87;61.09;99824.44;7399378;19;20506;-65
2022/03/31 08:21:00;;;;;;;9.52;5.57;;;;;;;1.98;60.87;99811.47;7401580;19;20014;-66
2022/03/31 08:23:28;;;;;;;8.35;4.93;;;;;;;2.05;60.41;99815.75;7398347;19;20022;-66
2022/03/31 08:25:57;;;;;;;15.35;6.07;;;;;;;2.13;59.90;99809.72;7401286;19;20467;-65
2022/03/31 08:28:31;;;;;;;12.02;5.47;;;;;;;2.19;59.86;99817.47;7399903;19;20103;-65
2022/03/31 08:30:59;;;;;;;10.85;6.05;;;;;;;2.24;59.71;99805.38;7400699;19;20078;-66
2022/03/31 08:33:27;;;;;;;8.80;5.32;;;;;;;2.31;59.57;99808.81;7400188;19;20036;-66
2022/03/31 08:35:55;;;;;;;11.10;6.70;;;;;;;2.37;59.73;99817.41;7399425;19;20026;-66
2022/03/31 08:38:24;;;;;;;8.77;6.00;;;;;;;2.41;59.20;99816.56;7401782;19;20026;-65
2022/03/31 08:40:56;;;;;;;8.85;5.53;;;;;;;2.44;59.04;99816.53;7401276;19;20435;-66
2022/03/31 08:43:26;;;;;;;10.88;5.65;;;;;;;2.47;58.91;99813.06;7398800;19;20035;-65
2022/03/31 08:46:03;;;;;;;7.93;5.05;;;;;;;2.48;57.53;99814.78;7402145;19;20360;-67
2022/03/31 08:48:32;;;;;;;10.57;5.53;;;;;;;2.50;58.61;99822.53;7401574;19;20027;-66
2022/03/31 08:51:00;;;;;;;7.82;4.97;;;;;;;2.51;58.52;99825.13;7398482;19;20044;-67
2022/03/31 08:53:28;;;;;;;7.03;5.00;;;;;;;2.55;58.65;99818.22;7398678;19;20022;-66
2022/03/31 08:55:57;;;;;;;8.00;5.68;;;;;;;2.60;58.58;99813.88;7398649;19;20019;-65
2022/03/31 08:58:25;;;;;;;8.27;5.15;;;;;;;2.69;58.54;99811.25;7398793;19;20019;-66
2022/03/31 09:00:54;;;;;;;6.45;4.93;;;;;;;2.79;58.14;99808.63;7402039;19;20019;-66
2022/03/31 09:03:36;;;;;;;8.07;5.43;;;;;;;2.88;58.83;99817.22;7400545;19;20032;-65
2022/03/31 09:06:05;;;;;;;9.43;5.97;;;;;;;3.00;57.94;99820.63;7400961;19;20021;-65
2022/03/31 09:08:33;;;;;;;10.82;5.75;;;;;;;3.09;56.97;99821.41;7400904;19;20018;-67
2022/03/31 09:11:03;;;;;;;8.35;5.28;;;;;;;3.19;56.68;99826.53;7399634;19;20414;-67
2022/03/31 09:13:35;;;;;;;7.28;5.93;;;;;;;3.27;56.73;99819.56;7400337;19;20022;-68
2022/03/31 09:16:06;;;;;;;10.68;6.00;;;;;;;3.35;56.96;99822.09;7400898;19;20576;-68
2022/03/31 09:18:39;;;;;;;7.45;5.60;;;;;;;3.44;56.00;99814.28;7398573;19;20010;-66
2022/03/31 09:21:10;;;;;;;7.40;5.97;;;;;;;3.58;56.73;99803.78;7397142;19;20481;-67
2022/03/31 09:23:42;;;;;;;8.63;6.20;;;;;;;3.71;55.47;99805.38;7398234;19;20018;-67
2022/03/31 09:26:13;;;;;;;10.48;5.53;;;;;;;3.83;55.31;99799.25;7397849;19;20019;-65
2022/03/31 09:28:43;;;;;;;16.02;9.60;;;;;;;3.97;55.98;99795.63;7397732;19;20085;-67
2022/03/31 09:31:12;;;;;;;13.02;8.60;;;;;;;4.12;55.38;99802.41;7396543;19;20432;-68
2022/03/31 09:33:53;;;;;;;12.13;6.10;;;;;;;4.26;55.25;99800.56;7398263;19;20090;-67
2022/03/31 09:36:23;;;;;;;8.45;5.35;;;;;;;4.40;55.36;99796.06;7397748;19;20018;-68
2022/03/31 09:38:54;;;;;;;9.27;5.88;;;;;;;4.53;54.52;99795.91;7397140;19;20035;-67
2022/03/31 09:41:25;;;;;;;6.45;5.53;;;;;;;4.66;54.33;99796.63;7397395;19;20027;-67
2022/03/31 09:43:54;;;;;;;8.75;5.53;;;;;;;4.76;53.88;99802.56;7397751;19;20018;-66
2022/03/31 09:46:24;;;;;;;11.40;5.43;;;;;;;4.85;53.79;99802.44;7399203;19;20041;-66
2022/03/31 09:48:57;;;;;;;10.70;6.20;;;;;;;4.96;54.19;99795.34;7398684;19;20019;-66
2022/03/31 09:51:27;;;;;;;9.43;6.60;;;;;;;5.07;52.96;99797.81;7400382;19;20035;-67
2022/03/31 09:53:56;;;;;;;7.93;5.70;;;;;;;5.15;52.60;99792.50;7397565;19;20040;-65
2022/03/31 09:56:26;;;;;;;10.73;5.88;;;;;;;5.19;52.62;99787.22;7401198;19;20023;-67
2022/03/31 09:58:56;;;;;;;8.13;5.30;;;;;;;5.26;52.81;99797.50;7401533;19;20517;-67
2022/03/31 10:01:25;;;;;;;7.35;5.00;;;;;;;5.30;51.64;99791.41;7398854;19;20500;-67
2022/03/31 10:03:57;;;;;;;10.77;5.82;;;;;;;5.35;52.08;99792.19;7398987;19;20375;-67
2022/03/31 10:06:26;;;;;;;6.95;5.72;;;;;;;5.39;52.44;99793.84;7398512;19;20026;-66
2022/03/31 10:08:57;;;;;;;8.77;6.13;;;;;;;5.44;52.18;99802.44;7398368;19;20082;-67
2022/03/31 10:11:28;;;;;;;8.75;6.40;;;;;;;5.47;51.36;99804.13;7397245;19;20370;-65
2022/03/31 10:14:16;;;;;;;9.23;6.05;;;;;;;5.46;50.58;99786.78;7397057;19;20496;-67
2022/03/31 10:16:47;;;;;;;12.88;6.07;;;;;;;5.47;51.79;99791.13;7399126;19;20021;-67
2022/03/31 10:19:28;;;;;;;8.70;6.25;;;;;;;5.47;51.42;99791.13;7397768;19;20367;-66
2022/03/31 10:22:06;;;;;;;8.55;6.60;;;;;;;5.49;51.28;99792.81;7397143;19;20109;-67
2022/03/31 10:24:47;;;;;;;10.60;6.93;;;;;;;5.52;51.94;99787.59;7396802;19;20500;-70
2022/03/31 10:27:17;;;;;;;11.60;6.25;;;;;;;5.55;51.75;99784.06;7395448;19;20039;-69
2022/03/31 10:29:48;;;;;;;9.98;5.88;;;;;;;5.59;51.81;99780.53;7396115;19;20037;-68
2022/03/31 10:32:21;;;;;;;8.98;6.18;;;;;;;5.62;51.57;99780.47;7396292;19;20029;-67
2022/03/31 10:34:54;;;;;;;9.10;6.50;;;;;;;5.64;51.46;99783.06;7392955;19;20015;-68
2022/03/31 10:37:34;;;;;;;12.10;6.65;;;;;;;5.63;50.91;99784.78;7397097;19;20041;-68
2022/03/31 10:40:03;;;;;;;9.48;6.05;;;;;;;5.65;51.67;99783.03;7398200;19;20014;-68
2022/03/31 10:42:31;;;;;;;11.95;7.45;;;;;;;5.66;51.58;99781.25;7397483;19;20362;-67
2022/03/31 10:45:13;;;;;;;8.27;6.97;;;;;;;5.64;51.05;99780.47;7395277;19;20030;-66
2022/03/31 10:47:43;;;;;;;11.20;7.65;;;;;;;5.56;51.03;99775.38;7397463;19;20025;-68
2022/03/31 10:50:28;;;;;;;13.23;7.38;;;;;;;5.52;51.13;99784.97;7394965;19;20361;-67
2022/03/31 10:53:03;;;;;;;12.60;7.63;;;;;;;5.49;51.89;99779.81;7394876;19;20419;-68
2022/03/31 10:55:37;;;;;;;10.95;7.60;;;;;;;5.50;51.81;99772.88;7396787;19;20018;-68
2022/03/31 10:58:06;;;;;;;13.07;8.20;;;;;;;5.54;51.88;99766.72;7395554;19;20027;-66
2022/03/31 11:00:35;;;;;;;10.98;7.40;;;;;;;5.59;52.00;99769.28;7395593;19;20018;-67
2022/03/31 11:03:04;;;;;;;9.65;6.90;;;;;;;5.62;51.75;99761.41;7397933;19;20032;-67
2022/03/31 11:05:34;;;;;;;10.32;7.45;;;;;;;5.61;50.86;99752.75;7398034;19;20022;-67
2022/03/31 11:08:07;;;;;;;11.57;6.78;;;;;;;5.63;51.21;99756.16;7395108;19;20019;-66
2022/03/31 11:10:46;;;;;;;9.50;6.80;;;;;;;5.65;50.21;99749.19;7395482;19;20023;-67
2022/03/31 11:13:16;;;;;;;9.93;6.25;;;;;;;5.70;51.33;99752.56;7395205;19;20036;-66
2022/03/31 11:15:47;;;;;;;8.52;6.35;;;;;;;5.75;49.77;99741.22;7396327;19;20025;-66
2022/03/31 11:18:15;;;;;;;8.90;6.97;;;;;;;5.80;50.71;99736.78;7395508;19;20014;-69
2022/03/31 11:20:46;;;;;;;11.68;7.25;;;;;;;5.85;50.58;99737.56;7395568;19;20035;-67
2022/03/31 11:23:14;;;;;;;12.35;6.97;;;;;;;5.93;50.72;99740.03;7395695;19;20397;-72
2022/03/31 11:25:45;;;;;;;11.15;6.53;;;;;;;5.97;50.80;99737.31;7395058;19;20031;-69
2022/03/31 11:28:15;;;;;;;10.85;6.55;;;;;;;6.04;50.59;99730.31;7396238;19;20014;-68
2022/03/31 11:30:45;;;;;;;14.63;7.88;;;;;;;6.09;50.30;99728.47;7393624;19;20015;-67
2022/03/31 11:33:14;;;;;;;12.77;6.80;;;;;;;6.13;50.02;99718.81;7395006;19;20018;-66
2022/03/31 11:35:45;;;;;;;9.25;6.47;;;;;;;6.18;50.10;99730.88;7393464;19;20014;-66
2022/03/31 11:38:17;;;;;;;9.68;6.70;;;;;;;6.22;50.09;99734.28;7392821;19;20492;-68
2022/03/31 11:40:47;;;;;;;9.43;7.32;;;;;;;6.17;49.85;99731.78;7395383;19;20017;-67
2022/03/31 11:43:18;;;;;;;8.82;6.82;;;;;;;6.13;49.35;99719.69;7395083;19;20061;-69
2022/03/31 11:45:49;;;;;;;10.02;6.82;;;;;;;6.11;49.71;99725.84;7395390;19;20026;-66